sensor_id;sensor_type;location;lat;lon;timestamp;temperature;humidity
14401;DHT22;7285;50.894;5.462;2023-05-02T00:02:03;10.30;1.00
14401;DHT22;7285;50.894;5.462;2023-05-02T00:04:32;10.40;1.00
14401;DHT22;7285;50.894;5.462;2023-05-02T00:06:59;10.40;1.00
14401;DHT22;7285;50.894;5.462;2023-05-02T00:09:26;10.50;1.00
14401;DHT22;7285;50.894;5.462;2023-05-02T00:11:52;10.50;1.00
14401;DHT22;7285;50.894;5.462;2023-05-02T00:14:19;10.50;1.00
14401;DHT22;7285;50.894;5.462;2023-05-02T00:16:46;10.60;99.90
14401;DHT22;7285;50.894;5.462;2023-05-02T00:19:13;10.70;99.90
14401;DHT22;7285;50.894;5.462;2023-05-02T00:21:42;10.70;99.90
14401;DHT22;7285;50.894;5.462;2023-05-02T00:24:09;10.70;99.90
14401;DHT22;7285;50.894;5.462;2023-05-02T00:26:36;10.70;1.00
14401;DHT22;7285;50.894;5.462;2023-05-02T00:29:02;10.70;1.00
14401;DHT22;7285;50.894;5.462;2023-05-02T00:31:30;10.80;1.00
14401;DHT22;7285;50.894;5.462;2023-05-02T00:33:57;10.80;99.90
14401;DHT22;7285;50.894;5.462;2023-05-02T00:36:24;10.90;99.90
14401;DHT22;7285;50.894;5.462;2023-05-02T00:38:53;10.90;99.90
14401;DHT22;7285;50.894;5.462;2023-05-02T00:41:20;10.90;99.90
14401;DHT22;7285;50.894;5.462;2023-05-02T00:43:47;10.90;99.90
14401;DHT22;7285;50.894;5.462;2023-05-02T00:46:14;10.90;99.90
14401;DHT22;7285;50.894;5.462;2023-05-02T00:48:41;10.90;99.90
14401;DHT22;7285;50.894;5.462;2023-05-02T00:51:09;10.90;1.00
14401;DHT22;7285;50.894;5.462;2023-05-02T00:53:38;10.90;1.00
14401;DHT22;7285;50.894;5.462;2023-05-02T00:56:07;10.90;1.00
14401;DHT22;7285;50.894;5.462;2023-05-02T00:58:35;10.90;1.00
14401;DHT22;7285;50.894;5.462;2023-05-02T01:01:10;10.90;99.90
14401;DHT22;7285;50.894;5.462;2023-05-02T01:03:45;10.90;1.00
14401;DHT22;7285;50.894;5.462;2023-05-02T01:06:27;11.00;1.00
14401;DHT22;7285;50.894;5.462;2023-05-02T01:08:59;11.00;1.00
14401;DHT22;7285;50.894;5.462;2023-05-02T01:11:36;11.00;99.90
14401;DHT22;7285;50.894;5.462;2023-05-02T01:14:08;11.00;1.00
14401;DHT22;7285;50.894;5.462;2023-05-02T01:16:38;11.10;1.00
14401;DHT22;7285;50.894;5.462;2023-05-02T01:19:09;11.10;1.00
14401;DHT22;7285;50.894;5.462;2023-05-02T01:21:38;11.10;1.00
14401;DHT22;7285;50.894;5.462;2023-05-02T01:24:09;11.10;1.00
14401;DHT22;7285;50.894;5.462;2023-05-02T01:26:49;11.10;1.00
14401;DHT22;7285;50.894;5.462;2023-05-02T01:29:19;11.10;1.00
14401;DHT22;7285;50.894;5.462;2023-05-02T01:31:49;11.10;22.90
14401;DHT22;7285;50.894;5.462;2023-05-02T01:34:18;11.10;1.00
14401;DHT22;7285;50.894;5.462;2023-05-02T01:36:47;11.10;1.00
14401;DHT22;7285;50.894;5.462;2023-05-02T01:39:19;11.10;1.00
14401;DHT22;7285;50.894;5.462;2023-05-02T01:41:48;11.10;1.00
14401;DHT22;7285;50.894;5.462;2023-05-02T01:44:19;11.10;1.00
14401;DHT22;7285;50.894;5.462;2023-05-02T01:46:47;11.10;1.00
14401;DHT22;7285;50.894;5.462;2023-05-02T01:49:15;11.10;1.00
14401;DHT22;7285;50.894;5.462;2023-05-02T01:51:47;11.10;1.00
14401;DHT22;7285;50.894;5.462;2023-05-02T01:54:16;11.10;1.00
14401;DHT22;7285;50.894;5.462;2023-05-02T01:56:43;11.10;1.00
14401;DHT22;7285;50.894;5.462;2023-05-02T01:59:14;11.10;1.00
14401;DHT22;7285;50.894;5.462;2023-05-02T02:01:44;11.10;1.00
14401;DHT22;7285;50.894;5.462;2023-05-02T02:04:14;11.20;15.80
14401;DHT22;7285;50.894;5.462;2023-05-02T02:06:44;11.10;1.00
14401;DHT22;7285;50.894;5.462;2023-05-02T02:09:12;11.10;1.00
14401;DHT22;7285;50.894;5.462;2023-05-02T02:11:43;11.20;1.00
14401;DHT22;7285;50.894;5.462;2023-05-02T02:14:17;11.10;1.00
14401;DHT22;7285;50.894;5.462;2023-05-02T02:16:46;11.10;99.90
14401;DHT22;7285;50.894;5.462;2023-05-02T02:19:14;11.10;99.90
14401;DHT22;7285;50.894;5.462;2023-05-02T02:21:42;11.10;99.90
14401;DHT22;7285;50.894;5.462;2023-05-02T02:24:09;11.20;99.90
14401;DHT22;7285;50.894;5.462;2023-05-02T02:26:37;11.20;17.10
14401;DHT22;7285;50.894;5.462;2023-05-02T02:29:04;11.20;1.00
14401;DHT22;7285;50.894;5.462;2023-05-02T02:31:31;11.20;1.00
14401;DHT22;7285;50.894;5.462;2023-05-02T02:34:00;11.20;99.90
14401;DHT22;7285;50.894;5.462;2023-05-02T02:36:32;11.20;1.00
14401;DHT22;7285;50.894;5.462;2023-05-02T02:39:12;11.20;1.00
14401;DHT22;7285;50.894;5.462;2023-05-02T02:41:48;11.20;1.00
14401;DHT22;7285;50.894;5.462;2023-05-02T02:44:25;11.20;1.00
14401;DHT22;7285;50.894;5.462;2023-05-02T02:47:00;11.20;1.00
14401;DHT22;7285;50.894;5.462;2023-05-02T02:49:37;11.20;1.00
14401;DHT22;7285;50.894;5.462;2023-05-02T02:52:16;11.20;1.00
14401;DHT22;7285;50.894;5.462;2023-05-02T02:54:46;11.10;99.90
14401;DHT22;7285;50.894;5.462;2023-05-02T02:57:17;11.20;99.90
14401;DHT22;7285;50.894;5.462;2023-05-02T02:59:57;11.20;99.90
14401;DHT22;7285;50.894;5.462;2023-05-02T03:02:28;11.20;1.00
14401;DHT22;7285;50.894;5.462;2023-05-02T03:04:59;11.20;1.00
14401;DHT22;7285;50.894;5.462;2023-05-02T03:07:27;11.20;1.00
14401;DHT22;7285;50.894;5.462;2023-05-02T03:09:55;11.20;1.00
14401;DHT22;7285;50.894;5.462;2023-05-02T03:12:22;11.20;1.00
14401;DHT22;7285;50.894;5.462;2023-05-02T03:14:49;11.20;1.00
14401;DHT22;7285;50.894;5.462;2023-05-02T03:17:16;11.10;1.00
14401;DHT22;7285;50.894;5.462;2023-05-02T03:19:43;11.10;1.00
14401;DHT22;7285;50.894;5.462;2023-05-02T03:22:13;11.10;1.00
14401;DHT22;7285;50.894;5.462;2023-05-02T03:24:40;11.10;1.00
14401;DHT22;7285;50.894;5.462;2023-05-02T03:27:07;11.00;1.00
14401;DHT22;7285;50.894;5.462;2023-05-02T03:29:33;11.00;1.00
14401;DHT22;7285;50.894;5.462;2023-05-02T03:32:00;11.00;99.90
14401;DHT22;7285;50.894;5.462;2023-05-02T03:34:27;10.90;99.90
14401;DHT22;7285;50.894;5.462;2023-05-02T03:36:54;10.90;99.90
14401;DHT22;7285;50.894;5.462;2023-05-02T03:39:23;10.90;1.00
14401;DHT22;7285;50.894;5.462;2023-05-02T03:41:50;10.90;1.00
14401;DHT22;7285;50.894;5.462;2023-05-02T03:44:16;11.00;1.00
14401;DHT22;7285;50.894;5.462;2023-05-02T03:46:43;11.00;1.00
14401;DHT22;7285;50.894;5.462;2023-05-02T03:49:10;11.00;1.00
14401;DHT22;7285;50.894;5.462;2023-05-02T03:51:38;11.00;1.00
14401;DHT22;7285;50.894;5.462;2023-05-02T03:54:05;11.00;1.00
14401;DHT22;7285;50.894;5.462;2023-05-02T03:56:33;11.00;1.00
14401;DHT22;7285;50.894;5.462;2023-05-02T03:59:01;11.00;1.00
14401;DHT22;7285;50.894;5.462;2023-05-02T04:01:28;11.00;99.90
14401;DHT22;7285;50.894;5.462;2023-05-02T04:03:56;11.00;99.90
14401;DHT22;7285;50.894;5.462;2023-05-02T04:06:23;10.90;99.90
14401;DHT22;7285;50.894;5.462;2023-05-02T04:08:49;11.00;99.90
14401;DHT22;7285;50.894;5.462;2023-05-02T04:11:16;11.00;1.00
14401;DHT22;7285;50.894;5.462;2023-05-02T04:13:45;10.90;1.00
14401;DHT22;7285;50.894;5.462;2023-05-02T04:16:12;11.00;1.00
14401;DHT22;7285;50.894;5.462;2023-05-02T04:18:38;10.90;1.00
14401;DHT22;7285;50.894;5.462;2023-05-02T04:21:06;10.90;1.00
14401;DHT22;7285;50.894;5.462;2023-05-02T04:23:34;10.90;1.00
14401;DHT22;7285;50.894;5.462;2023-05-02T04:26:01;10.90;1.00
14401;DHT22;7285;50.894;5.462;2023-05-02T04:28:28;10.90;1.00
14401;DHT22;7285;50.894;5.462;2023-05-02T04:30:57;10.90;1.00
14401;DHT22;7285;50.894;5.462;2023-05-02T04:33:24;10.80;99.90
14401;DHT22;7285;50.894;5.462;2023-05-02T04:35:51;10.80;99.90
14401;DHT22;7285;50.894;5.462;2023-05-02T04:38:18;10.80;99.90
14401;DHT22;7285;50.894;5.462;2023-05-02T04:40:45;10.90;19.40
14401;DHT22;7285;50.894;5.462;2023-05-02T04:43:12;10.80;1.00
14401;DHT22;7285;50.894;5.462;2023-05-02T04:45:39;10.90;1.00
14401;DHT22;7285;50.894;5.462;2023-05-02T04:48:07;10.90;1.00
14401;DHT22;7285;50.894;5.462;2023-05-02T04:50:34;10.90;1.00
14401;DHT22;7285;50.894;5.462;2023-05-02T04:53:01;10.90;1.00
14401;DHT22;7285;50.894;5.462;2023-05-02T04:55:28;10.80;1.00
14401;DHT22;7285;50.894;5.462;2023-05-02T04:57:55;10.90;1.00
14401;DHT22;7285;50.894;5.462;2023-05-02T05:00:22;10.90;1.00
14401;DHT22;7285;50.894;5.462;2023-05-02T05:02:49;10.80;99.90
14401;DHT22;7285;50.894;5.462;2023-05-02T05:05:18;10.90;99.90
14401;DHT22;7285;50.894;5.462;2023-05-02T05:07:44;10.90;96.70
14401;DHT22;7285;50.894;5.462;2023-05-02T05:10:11;10.90;84.90
14401;DHT22;7285;50.894;5.462;2023-05-02T05:12:38;10.90;99.90
14401;DHT22;7285;50.894;5.462;2023-05-02T05:15:06;10.90;10.40
14401;DHT22;7285;50.894;5.462;2023-05-02T05:17:33;10.90;1.00
14401;DHT22;7285;50.894;5.462;2023-05-02T05:20:00;10.90;1.00
14401;DHT22;7285;50.894;5.462;2023-05-02T05:22:29;10.90;1.00
14401;DHT22;7285;50.894;5.462;2023-05-02T05:24:56;10.90;1.00
14401;DHT22;7285;50.894;5.462;2023-05-02T05:27:23;11.00;1.00
14401;DHT22;7285;50.894;5.462;2023-05-02T05:29:50;11.00;1.00
14401;DHT22;7285;50.894;5.462;2023-05-02T05:32:17;11.00;1.00
14401;DHT22;7285;50.894;5.462;2023-05-02T05:34:44;11.00;1.00
14401;DHT22;7285;50.894;5.462;2023-05-02T05:37:11;11.00;1.00
14401;DHT22;7285;50.894;5.462;2023-05-02T05:39:39;11.10;99.90
14401;DHT22;7285;50.894;5.462;2023-05-02T05:42:06;11.10;99.90
14401;DHT22;7285;50.894;5.462;2023-05-02T05:44:34;11.20;1.00
14401;DHT22;7285;50.894;5.462;2023-05-02T05:47:01;11.20;66.60
14401;DHT22;7285;50.894;5.462;2023-05-02T05:49:28;11.20;1.00
14401;DHT22;7285;50.894;5.462;2023-05-02T05:51:55;11.20;1.00
14401;DHT22;7285;50.894;5.462;2023-05-02T05:54:22;11.20;99.90
14401;DHT22;7285;50.894;5.462;2023-05-02T05:56:50;11.20;1.00
14401;DHT22;7285;50.894;5.462;2023-05-02T05:59:17;11.30;99.90
14401;DHT22;7285;50.894;5.462;2023-05-02T06:01:44;11.20;91.00
14401;DHT22;7285;50.894;5.462;2023-05-02T06:04:11;11.20;32.50
14401;DHT22;7285;50.894;5.462;2023-05-02T06:06:38;11.20;99.90
14401;DHT22;7285;50.894;5.462;2023-05-02T06:09:05;11.10;99.90
14401;DHT22;7285;50.894;5.462;2023-05-02T06:11:32;11.10;1.00
14401;DHT22;7285;50.894;5.462;2023-05-02T06:14:00;11.10;11.00
14401;DHT22;7285;50.894;5.462;2023-05-02T06:16:27;11.10;1.00
14401;DHT22;7285;50.894;5.462;2023-05-02T06:18:54;11.10;1.00
14401;DHT22;7285;50.894;5.462;2023-05-02T06:21:21;11.10;49.80
14401;DHT22;7285;50.894;5.462;2023-05-02T06:23:48;11.10;1.00
14401;DHT22;7285;50.894;5.462;2023-05-02T06:26:15;11.10;99.90
14401;DHT22;7285;50.894;5.462;2023-05-02T06:28:42;11.20;82.80
14401;DHT22;7285;50.894;5.462;2023-05-02T06:31:10;11.20;71.50
14401;DHT22;7285;50.894;5.462;2023-05-02T06:33:37;11.10;1.00
14401;DHT22;7285;50.894;5.462;2023-05-02T06:36:04;11.20;1.00
14401;DHT22;7285;50.894;5.462;2023-05-02T06:38:31;11.20;1.00
14401;DHT22;7285;50.894;5.462;2023-05-02T06:40:58;11.20;99.90
14401;DHT22;7285;50.894;5.462;2023-05-02T06:43:25;11.20;63.90
14401;DHT22;7285;50.894;5.462;2023-05-02T06:45:52;11.20;14.50
14401;DHT22;7285;50.894;5.462;2023-05-02T06:48:22;11.30;24.50
14401;DHT22;7285;50.894;5.462;2023-05-02T06:50:50;11.30;1.00
14401;DHT22;7285;50.894;5.462;2023-05-02T06:53:17;11.30;1.00
14401;DHT22;7285;50.894;5.462;2023-05-02T06:55:45;11.30;1.00
14401;DHT22;7285;50.894;5.462;2023-05-02T06:58:13;11.30;1.00
14401;DHT22;7285;50.894;5.462;2023-05-02T07:00:40;11.30;1.00
14401;DHT22;7285;50.894;5.462;2023-05-02T07:03:07;11.20;1.00
14401;DHT22;7285;50.894;5.462;2023-05-02T07:05:37;11.20;99.90
14401;DHT22;7285;50.894;5.462;2023-05-02T07:08:04;11.20;99.90
14401;DHT22;7285;50.894;5.462;2023-05-02T07:10:31;11.20;1.00
14401;DHT22;7285;50.894;5.462;2023-05-02T07:12:58;11.20;1.00
14401;DHT22;7285;50.894;5.462;2023-05-02T07:15:25;11.40;1.00
14401;DHT22;7285;50.894;5.462;2023-05-02T07:17:52;11.50;99.90
14401;DHT22;7285;50.894;5.462;2023-05-02T07:20:19;11.60;99.90
14401;DHT22;7285;50.894;5.462;2023-05-02T07:22:47;11.80;99.90
14401;DHT22;7285;50.894;5.462;2023-05-02T07:25:14;11.90;1.00
14401;DHT22;7285;50.894;5.462;2023-05-02T07:27:41;12.00;1.00
14401;DHT22;7285;50.894;5.462;2023-05-02T07:30:09;12.00;1.00
14401;DHT22;7285;50.894;5.462;2023-05-02T07:32:36;12.00;1.00
14401;DHT22;7285;50.894;5.462;2023-05-02T07:35:03;12.00;1.00
14401;DHT22;7285;50.894;5.462;2023-05-02T07:37:32;12.00;99.90
14401;DHT22;7285;50.894;5.462;2023-05-02T07:40:01;12.00;99.90
14401;DHT22;7285;50.894;5.462;2023-05-02T07:42:28;12.10;99.90
14401;DHT22;7285;50.894;5.462;2023-05-02T07:44:55;12.30;99.90
14401;DHT22;7285;50.894;5.462;2023-05-02T07:47:22;12.70;98.10
14401;DHT22;7285;50.894;5.462;2023-05-02T07:49:51;12.80;1.00
14401;DHT22;7285;50.894;5.462;2023-05-02T07:52:18;13.00;1.00
14401;DHT22;7285;50.894;5.462;2023-05-02T07:54:46;13.10;1.00
14401;DHT22;7285;50.894;5.462;2023-05-02T07:57:15;13.30;1.00
14401;DHT22;7285;50.894;5.462;2023-05-02T07:59:42;13.20;1.00
14401;DHT22;7285;50.894;5.462;2023-05-02T08:02:09;13.20;1.00
14401;DHT22;7285;50.894;5.462;2023-05-02T08:04:38;13.10;1.00
14401;DHT22;7285;50.894;5.462;2023-05-02T08:07:05;13.00;1.00
14401;DHT22;7285;50.894;5.462;2023-05-02T08:09:32;12.90;99.90
14401;DHT22;7285;50.894;5.462;2023-05-02T08:11:59;12.80;1.00
14401;DHT22;7285;50.894;5.462;2023-05-02T08:14:29;12.70;99.90
14401;DHT22;7285;50.894;5.462;2023-05-02T08:16:56;12.70;1.00
14401;DHT22;7285;50.894;5.462;2023-05-02T08:19:23;12.90;1.00
14401;DHT22;7285;50.894;5.462;2023-05-02T08:21:49;13.10;1.00
14401;DHT22;7285;50.894;5.462;2023-05-02T08:24:16;13.30;99.90
14401;DHT22;7285;50.894;5.462;2023-05-02T08:26:43;13.60;99.90
14401;DHT22;7285;50.894;5.462;2023-05-02T08:29:10;13.90;99.90
14401;DHT22;7285;50.894;5.462;2023-05-02T08:31:39;14.00;99.90
14401;DHT22;7285;50.894;5.462;2023-05-02T08:34:06;14.40;99.90
14401;DHT22;7285;50.894;5.462;2023-05-02T08:36:33;14.50;99.90
14401;DHT22;7285;50.894;5.462;2023-05-02T08:39:01;14.40;99.90
14401;DHT22;7285;50.894;5.462;2023-05-02T08:41:29;14.00;99.90
14401;DHT22;7285;50.894;5.462;2023-05-02T08:43:56;13.90;99.90
14401;DHT22;7285;50.894;5.462;2023-05-02T08:46:25;14.10;99.90
14401;DHT22;7285;50.894;5.462;2023-05-02T08:48:57;14.30;99.90
14401;DHT22;7285;50.894;5.462;2023-05-02T08:51:26;14.10;99.90
14401;DHT22;7285;50.894;5.462;2023-05-02T08:53:54;14.10;99.90
14401;DHT22;7285;50.894;5.462;2023-05-02T08:56:21;14.00;99.50
14401;DHT22;7285;50.894;5.462;2023-05-02T08:58:49;14.20;99.90
14401;DHT22;7285;50.894;5.462;2023-05-02T09:01:18;14.40;79.30
14401;DHT22;7285;50.894;5.462;2023-05-02T09:03:47;14.40;20.60
14401;DHT22;7285;50.894;5.462;2023-05-02T09:06:16;14.20;1.00
14401;DHT22;7285;50.894;5.462;2023-05-02T09:08:45;14.20;1.00
14401;DHT22;7285;50.894;5.462;2023-05-02T09:11:14;14.30;1.00
14401;DHT22;7285;50.894;5.462;2023-05-02T09:13:43;14.50;1.00
14401;DHT22;7285;50.894;5.462;2023-05-02T09:16:11;14.90;1.00
14401;DHT22;7285;50.894;5.462;2023-05-02T09:18:39;14.70;1.00
14401;DHT22;7285;50.894;5.462;2023-05-02T09:21:10;14.70;1.00
14401;DHT22;7285;50.894;5.462;2023-05-02T09:23:40;14.80;1.00
14401;DHT22;7285;50.894;5.462;2023-05-02T09:26:16;14.80;1.00
14401;DHT22;7285;50.894;5.462;2023-05-02T09:28:44;14.70;1.00
14401;DHT22;7285;50.894;5.462;2023-05-02T09:31:12;14.60;1.00
14401;DHT22;7285;50.894;5.462;2023-05-02T09:33:40;14.90;1.00
14401;DHT22;7285;50.894;5.462;2023-05-02T09:36:10;14.90;1.00
14401;DHT22;7285;50.894;5.462;2023-05-02T09:38:40;15.00;1.00
14401;DHT22;7285;50.894;5.462;2023-05-02T09:41:07;15.00;1.00
14401;DHT22;7285;50.894;5.462;2023-05-02T09:43:34;15.30;1.00
14401;DHT22;7285;50.894;5.462;2023-05-02T09:46:03;15.40;1.00
14401;DHT22;7285;50.894;5.462;2023-05-02T09:48:32;15.10;1.00
14401;DHT22;7285;50.894;5.462;2023-05-02T09:50:59;15.20;1.00
14401;DHT22;7285;50.894;5.462;2023-05-02T09:53:27;15.20;1.00
14401;DHT22;7285;50.894;5.462;2023-05-02T09:56:03;15.60;1.00
14401;DHT22;7285;50.894;5.462;2023-05-02T09:58:30;15.40;1.00
14401;DHT22;7285;50.894;5.462;2023-05-02T10:00:57;15.40;1.00
14401;DHT22;7285;50.894;5.462;2023-05-02T10:03:25;15.20;1.00
14401;DHT22;7285;50.894;5.462;2023-05-02T10:05:53;15.00;1.00
14401;DHT22;7285;50.894;5.462;2023-05-02T10:08:21;15.00;1.00
14401;DHT22;7285;50.894;5.462;2023-05-02T10:10:51;15.10;1.00
14401;DHT22;7285;50.894;5.462;2023-05-02T10:13:22;15.40;1.00
14401;DHT22;7285;50.894;5.462;2023-05-02T10:16:00;15.20;1.00
14401;DHT22;7285;50.894;5.462;2023-05-02T10:18:30;15.10;1.00
14401;DHT22;7285;50.894;5.462;2023-05-02T10:21:04;15.00;1.00
14401;DHT22;7285;50.894;5.462;2023-05-02T10:23:32;15.10;1.00
14401;DHT22;7285;50.894;5.462;2023-05-02T10:26:00;15.60;1.00
14401;DHT22;7285;50.894;5.462;2023-05-02T10:28:29;15.80;1.00
14401;DHT22;7285;50.894;5.462;2023-05-02T10:30:57;15.50;1.00
14401;DHT22;7285;50.894;5.462;2023-05-02T10:33:26;15.40;1.00
14401;DHT22;7285;50.894;5.462;2023-05-02T10:35:54;15.20;1.00
14401;DHT22;7285;50.894;5.462;2023-05-02T10:38:22;15.00;1.00
14401;DHT22;7285;50.894;5.462;2023-05-02T10:40:56;15.00;1.00
14401;DHT22;7285;50.894;5.462;2023-05-02T10:43:27;15.10;1.00
14401;DHT22;7285;50.894;5.462;2023-05-02T10:45:55;15.90;1.00
14401;DHT22;7285;50.894;5.462;2023-05-02T10:48:23;16.10;1.00
14401;DHT22;7285;50.894;5.462;2023-05-02T10:50:52;16.10;1.00
14401;DHT22;7285;50.894;5.462;2023-05-02T10:53:24;16.50;1.00
14401;DHT22;7285;50.894;5.462;2023-05-02T10:56:14;16.10;1.00
14401;DHT22;7285;50.894;5.462;2023-05-02T10:58:42;16.00;1.00
14401;DHT22;7285;50.894;5.462;2023-05-02T11:01:33;16.70;1.00
14401;DHT22;7285;50.894;5.462;2023-05-02T11:04:03;17.10;1.00
14401;DHT22;7285;50.894;5.462;2023-05-02T11:06:31;17.00;1.00
14401;DHT22;7285;50.894;5.462;2023-05-02T11:09:33;16.70;1.00
14401;DHT22;7285;50.894;5.462;2023-05-02T11:12:02;16.90;1.00
14401;DHT22;7285;50.894;5.462;2023-05-02T11:14:46;16.70;1.00
14401;DHT22;7285;50.894;5.462;2023-05-02T11:17:15;16.20;1.00
14401;DHT22;7285;50.894;5.462;2023-05-02T11:22:55;16.10;1.00
14401;DHT22;7285;50.894;5.462;2023-05-02T11:25:34;17.20;1.00
14401;DHT22;7285;50.894;5.462;2023-05-02T11:28:03;17.40;1.00
14401;DHT22;7285;50.894;5.462;2023-05-02T11:30:44;17.20;1.00
14401;DHT22;7285;50.894;5.462;2023-05-02T11:33:17;16.80;1.00
14401;DHT22;7285;50.894;5.462;2023-05-02T11:35:48;17.10;1.00
14401;DHT22;7285;50.894;5.462;2023-05-02T11:38:25;17.10;1.00
14401;DHT22;7285;50.894;5.462;2023-05-02T11:40:57;16.90;1.00
14401;DHT22;7285;50.894;5.462;2023-05-02T11:43:26;16.60;1.00
14401;DHT22;7285;50.894;5.462;2023-05-02T11:45:54;16.40;1.00
14401;DHT22;7285;50.894;5.462;2023-05-02T11:48:23;16.40;1.00
14401;DHT22;7285;50.894;5.462;2023-05-02T11:50:53;16.30;1.00
14401;DHT22;7285;50.894;5.462;2023-05-02T11:53:22;16.30;1.00
14401;DHT22;7285;50.894;5.462;2023-05-02T11:55:51;16.30;1.00
14401;DHT22;7285;50.894;5.462;2023-05-02T11:58:19;16.50;1.00
14401;DHT22;7285;50.894;5.462;2023-05-02T12:00:47;16.30;1.00
14401;DHT22;7285;50.894;5.462;2023-05-02T12:03:23;16.20;1.00
14401;DHT22;7285;50.894;5.462;2023-05-02T12:05:50;16.30;1.00
14401;DHT22;7285;50.894;5.462;2023-05-02T12:08:23;16.40;1.00
14401;DHT22;7285;50.894;5.462;2023-05-02T12:10:52;17.00;1.00
14401;DHT22;7285;50.894;5.462;2023-05-02T12:13:21;17.80;1.00
14401;DHT22;7285;50.894;5.462;2023-05-02T12:15:49;18.00;1.00
14401;DHT22;7285;50.894;5.462;2023-05-02T12:18:17;17.60;1.00
14401;DHT22;7285;50.894;5.462;2023-05-02T12:20:46;17.10;1.00
14401;DHT22;7285;50.894;5.462;2023-05-02T12:23:13;16.70;1.00
14401;DHT22;7285;50.894;5.462;2023-05-02T12:25:41;17.10;1.00
14401;DHT22;7285;50.894;5.462;2023-05-02T12:28:09;17.60;1.00
14401;DHT22;7285;50.894;5.462;2023-05-02T12:30:37;17.90;1.00
14401;DHT22;7285;50.894;5.462;2023-05-02T12:33:04;18.90;1.00
14401;DHT22;7285;50.894;5.462;2023-05-02T12:35:32;18.60;1.00
14401;DHT22;7285;50.894;5.462;2023-05-02T12:38:18;18.40;1.00
14401;DHT22;7285;50.894;5.462;2023-05-02T12:40:48;18.30;1.00
14401;DHT22;7285;50.894;5.462;2023-05-02T12:43:16;17.50;1.00
14401;DHT22;7285;50.894;5.462;2023-05-02T12:45:43;16.90;1.00
14401;DHT22;7285;50.894;5.462;2023-05-02T12:48:21;17.10;1.00
14401;DHT22;7285;50.894;5.462;2023-05-02T12:50:48;17.90;1.00
14401;DHT22;7285;50.894;5.462;2023-05-02T12:56:02;19.50;1.00
14401;DHT22;7285;50.894;5.462;2023-05-02T12:58:29;18.60;1.00
14401;DHT22;7285;50.894;5.462;2023-05-02T13:00:56;17.80;1.00
14401;DHT22;7285;50.894;5.462;2023-05-02T13:03:23;17.30;1.00
14401;DHT22;7285;50.894;5.462;2023-05-02T13:05:53;17.00;1.00
14401;DHT22;7285;50.894;5.462;2023-05-02T13:08:21;16.80;1.00
14401;DHT22;7285;50.894;5.462;2023-05-02T13:10:48;16.90;1.00
14401;DHT22;7285;50.894;5.462;2023-05-02T13:13:15;17.90;1.00
14401;DHT22;7285;50.894;5.462;2023-05-02T13:15:42;18.50;1.00
14401;DHT22;7285;50.894;5.462;2023-05-02T13:18:09;19.20;1.00
14401;DHT22;7285;50.894;5.462;2023-05-02T13:20:36;19.00;1.00
14401;DHT22;7285;50.894;5.462;2023-05-02T13:23:03;18.40;1.00
14401;DHT22;7285;50.894;5.462;2023-05-02T13:25:31;17.80;1.00
14401;DHT22;7285;50.894;5.462;2023-05-02T13:27:58;18.20;1.00
14401;DHT22;7285;50.894;5.462;2023-05-02T13:30:25;18.30;1.00
14401;DHT22;7285;50.894;5.462;2023-05-02T13:32:52;18.80;1.00
14401;DHT22;7285;50.894;5.462;2023-05-02T13:35:19;19.20;1.00
14401;DHT22;7285;50.894;5.462;2023-05-02T13:37:46;19.20;1.00
14401;DHT22;7285;50.894;5.462;2023-05-02T13:40:13;19.50;1.00
14401;DHT22;7285;50.894;5.462;2023-05-02T13:42:41;19.40;1.00
14401;DHT22;7285;50.894;5.462;2023-05-02T13:45:09;19.10;1.00
14401;DHT22;7285;50.894;5.462;2023-05-02T13:47:36;19.40;1.00
14401;DHT22;7285;50.894;5.462;2023-05-02T13:50:04;19.90;1.00
14401;DHT22;7285;50.894;5.462;2023-05-02T13:52:31;20.10;1.00
14401;DHT22;7285;50.894;5.462;2023-05-02T13:54:58;20.20;1.00
14401;DHT22;7285;50.894;5.462;2023-05-02T13:57:25;19.90;1.00
14401;DHT22;7285;50.894;5.462;2023-05-02T13:59:53;19.70;1.00
14401;DHT22;7285;50.894;5.462;2023-05-02T14:02:20;19.00;1.00
14401;DHT22;7285;50.894;5.462;2023-05-02T14:04:47;18.50;1.00
14401;DHT22;7285;50.894;5.462;2023-05-02T14:07:14;17.90;99.90
14401;DHT22;7285;50.894;5.462;2023-05-02T14:09:41;17.60;1.00
14401;DHT22;7285;50.894;5.462;2023-05-02T14:12:09;17.30;1.00
14401;DHT22;7285;50.894;5.462;2023-05-02T14:14:35;17.10;1.00
14401;DHT22;7285;50.894;5.462;2023-05-02T14:17:04;17.00;1.00
14401;DHT22;7285;50.894;5.462;2023-05-02T14:19:31;16.80;1.00
14401;DHT22;7285;50.894;5.462;2023-05-02T14:21:58;17.30;1.00
14401;DHT22;7285;50.894;5.462;2023-05-02T14:24:25;17.50;1.00
14401;DHT22;7285;50.894;5.462;2023-05-02T14:26:52;18.20;1.00
14401;DHT22;7285;50.894;5.462;2023-05-02T14:29:19;18.60;1.00
14401;DHT22;7285;50.894;5.462;2023-05-02T14:31:46;19.40;1.00
14401;DHT22;7285;50.894;5.462;2023-05-02T14:34:14;19.70;1.00
14401;DHT22;7285;50.894;5.462;2023-05-02T14:36:41;19.90;1.00
14401;DHT22;7285;50.894;5.462;2023-05-02T14:39:08;20.10;1.00
14401;DHT22;7285;50.894;5.462;2023-05-02T14:41:35;20.20;99.90
14401;DHT22;7285;50.894;5.462;2023-05-02T14:44:02;20.60;1.00
14401;DHT22;7285;50.894;5.462;2023-05-02T14:46:28;20.50;1.00
14401;DHT22;7285;50.894;5.462;2023-05-02T14:48:55;20.70;99.90
14401;DHT22;7285;50.894;5.462;2023-05-02T14:51:24;20.80;1.00
14401;DHT22;7285;50.894;5.462;2023-05-02T14:53:51;20.70;1.00
14401;DHT22;7285;50.894;5.462;2023-05-02T14:56:18;20.30;1.00
14401;DHT22;7285;50.894;5.462;2023-05-02T14:58:46;20.00;99.90
14401;DHT22;7285;50.894;5.462;2023-05-02T15:01:16;20.00;99.90
14401;DHT22;7285;50.894;5.462;2023-05-02T15:03:43;20.20;99.90
14401;DHT22;7285;50.894;5.462;2023-05-02T15:06:12;20.30;99.90
14401;DHT22;7285;50.894;5.462;2023-05-02T15:08:40;20.30;99.90
14401;DHT22;7285;50.894;5.462;2023-05-02T15:11:08;20.20;99.90
14401;DHT22;7285;50.894;5.462;2023-05-02T15:13:36;20.10;99.90
14401;DHT22;7285;50.894;5.462;2023-05-02T15:16:03;20.30;99.90
14401;DHT22;7285;50.894;5.462;2023-05-02T15:18:30;20.30;99.90
14401;DHT22;7285;50.894;5.462;2023-05-02T15:20:57;19.80;99.90
14401;DHT22;7285;50.894;5.462;2023-05-02T15:23:24;19.40;99.90
14401;DHT22;7285;50.894;5.462;2023-05-02T15:25:52;19.30;99.90
14401;DHT22;7285;50.894;5.462;2023-05-02T15:28:19;19.70;99.90
14401;DHT22;7285;50.894;5.462;2023-05-02T15:30:46;19.90;99.90
14401;DHT22;7285;50.894;5.462;2023-05-02T15:33:14;20.00;99.90
14401;DHT22;7285;50.894;5.462;2023-05-02T15:35:51;19.70;99.90
14401;DHT22;7285;50.894;5.462;2023-05-02T15:38:19;19.70;99.90
14401;DHT22;7285;50.894;5.462;2023-05-02T15:40:54;19.90;99.90
14401;DHT22;7285;50.894;5.462;2023-05-02T15:43:21;20.10;99.90
14401;DHT22;7285;50.894;5.462;2023-05-02T15:45:52;20.30;99.90
14401;DHT22;7285;50.894;5.462;2023-05-02T15:48:19;20.00;99.90
14401;DHT22;7285;50.894;5.462;2023-05-02T15:50:46;19.90;99.90
14401;DHT22;7285;50.894;5.462;2023-05-02T15:53:13;20.30;99.90
14401;DHT22;7285;50.894;5.462;2023-05-02T15:55:41;20.60;99.90
14401;DHT22;7285;50.894;5.462;2023-05-02T15:58:09;20.40;99.90
14401;DHT22;7285;50.894;5.462;2023-05-02T16:00:36;20.10;99.90
14401;DHT22;7285;50.894;5.462;2023-05-02T16:03:03;20.40;99.90
14401;DHT22;7285;50.894;5.462;2023-05-02T16:05:31;20.30;99.90
14401;DHT22;7285;50.894;5.462;2023-05-02T16:07:58;20.10;99.90
14401;DHT22;7285;50.894;5.462;2023-05-02T16:10:25;20.30;99.90
14401;DHT22;7285;50.894;5.462;2023-05-02T16:12:52;20.00;99.90